Students for Diabetes Awareness 5k Run/Walk

This slideshow requires JavaScript.

Overall Finish List

April 07, 2012


Results by RF Timing RF Timing


5k Run/Walk

Place Name City Bib No Gender Total Time Pace
1 Alexander Clisham Farmington Hills 165 M 19:46.2 6:23/M
2 Greg Snyder 197 M 19:56.1 6:26/M
3 Brendan Driscoll 198 M 20:16.9 6:32/M
4 Kiley Mitchell Belleville MICHIGAN 176 M 20:45.6 6:42/M
5 Scott Breitenbach Ann Arbor 161 M 21:20.5 6:53/M
6 Harry Sherwood Ann Arbor 137 M 22:20.2 7:12/M
7 Chad Kitzinger Owosso 160 M 22:37.9 7:18/M
8 Ryan Dickson Ann Arbor 171 M 23:25.7 7:33/M
9 Paul Gamble Birmingham 164 M 24:34.0 7:55/M
10 David Jacubi 194 M 24:54.5 8:02/M
11 Jodi Talbott Whitmore Lake 129 F 25:39.8 8:16/M
12 Kris Eckman Pinckney 127 F 25:39.9 8:16/M
13 Shayna Smith Dearborn MICHIGAN 173 F 26:00.1 8:23/M
14 Sarah Artt Troy 150 F 26:21.3 8:30/M
15 Paul Sherman 263 M 26:42.9 8:37/M
16 Kelsey Byrne Ewen MI 154 F 26:54.6 8:41/M
17 Nathaniel Griffin Ypsilanti 131 M 27:13.1 8:47/M
18 Justin Clifton Temperance 172 M 27:39.0 8:55/M
19 Andrew Bates Novi MICHIGAN 264 M 27:41.0 8:56/M
20 Kevin Roseborough Grosse Pointe Farms 157 M 28:10.4 9:05/M
21 Abbey Schallhorn Royal Oak 159 F 28:42.4 9:15/M
22 Glenn Gerter 190 M 29:08.5 9:24/M
23 Jordan Ruterbusch Howell 175 M 29:44.6 9:35/M
24 Andrew Eckman Pinckney 189 M 30:03.8 9:42/M
25 Krystal Dunlap Southfield 167 F 30:08.8 9:43/M
26 Lucas Zurbuchen 185 M 30:54.3 9:58/M
27 Erin Zurbuchen 184 F 30:59.1 10:00/M
28 Douglas Harris Saline 153 M 31:17.1 10:05/M
29 Matthew Hartmann Royal Oak 169 M 31:20.8 10:06/M
30 Ankit Goyal Novi 166 M 32:01.0 10:20/M
31 Walker Hofmann Honolulu 180 M 32:42.5 10:33/M
32 David Trollman Novi 179 M 32:43.7 10:33/M
33 George Rose Royal Oak 158 M 32:51.5 10:36/M
34 Marisa Lamberty Ann Arbor MI 168 F 34:08.3 11:01/M
35 Seth Levine 265 M 34:52.0 11:15/M
36 Zuhair Abdel-Hak 183 M 34:54.9 11:15/M
37 Kathleen Dennis Saline MICHIGAN 177 F 35:08.8 11:20/M
38 Thomas Burkhardt Northville 155 M 37:16.2 12:01/M
39 Joanna Panjiline 195 F 37:24.3 12:04/M
40 Fadia Bazzi 196 F 37:25.6 12:04/M
41 Bradford Jackson Plymouth MI 156 M 37:59.0 12:15/M
42 Latoya Griffin Ypsilanti 130 F 39:16.7 12:40/M
43 Alexander Dennis Saline MICHIGAN 178 M 39:28.6 12:44/M
44 Brian Dennis Saline MICHIGAN 182 M 39:38.2 12:47/M
45 Akash Ahuja Ann Arbor 163 M 43:05.9 13:54/M
46 Veena Tripathi Ann Arbor 162 F 43:08.1 13:55/M
47 Holly Liggett Belleville 133 F 44:31.9 14:22/M
48 Jamal Abdel-Hak Dearborn Heights 142 M 47:52.0 15:26/M
49 Don Quinlan Brownstown 144 M 48:15.5 15:34/M
50 Anita Quinlan Brownstown 145 F 48:15.6 15:34/M
51 Collin Kidd Parkersburg 174 M 53:09.3 17:09/M
52 Maria Zurbuchen Ann Arbor MI 186 F 53:46.3 17:21/M
53 Larissa Herzog Ann Arbor MI 187 F 53:47.3 17:21/M
54 Cameron Quinlan Brownstown 146 M 54:04.5 17:26/M
55 Caylin Quinlan Brownstown 147 M 54:04.9 17:26/M
56 Alyssa Ruiz Troy 140 F 55:17.1 17:50/M
57 Hyat Abdel-Hak Dearborn Heights 181 F 55:18.7 17:50/M
58 Anna James 192 F 55:21.7 17:51/M
59 Karole James Ann Arbor MI 148 F 55:23.4 17:52/M
60 Robert James Jr. Ann Arbor 149 M 55:23.9 17:52/M
61 Erika Sharpeta 188 F 55:30.8 17:54/M
62 Sierra Alexander Blacklick 134 F 55:32.5 17:55/M
63 Miranda Springer Parkersburg 136 F 55:33.9 17:55/M
64 Amy Drennen Redford 143 F 58:09.7 18:45/M
65 Joe Ruiz Troy 139 M 59:13.8 19:06/M
66 Mary Ruiz Troy 138 F 59:18.5 19:08/M
67 Frances Artt Troy 151 M 59:19.1 19:08/M
68 Ernest Artt Troy 152 M 59:41.2 19:15/M
69 Tanisha Thibodaux Garden City 135 F 1:03:46.1 20:34/M
Advertisements

Leave a Reply

Fill in your details below or click an icon to log in:

WordPress.com Logo

You are commenting using your WordPress.com account. Log Out / Change )

Twitter picture

You are commenting using your Twitter account. Log Out / Change )

Facebook photo

You are commenting using your Facebook account. Log Out / Change )

Google+ photo

You are commenting using your Google+ account. Log Out / Change )

Connecting to %s